Time,TemperatureF,DewpointF,PressureIn,WindDirection,WindDirectionDegrees,WindSpeedMPH,WindSpeedGustMPH,Humidity,HourlyPrecipIn,Conditions,Clouds,dailyrainin,SoftwareType,DateUTC
2013-07-04 00:01:00,55.6,51.8,30.12,East,83,0.0,0.0,87,0.00,,CLR,0.00,VWS V14.01,2013-07-04 07:01:00,
2013-07-04 00:06:00,55.5,51.7,30.12,ESE,105,1.0,0.0,87,0.00,,CLR,0.00,VWS V14.01,2013-07-04 07:06:00,
2013-07-04 00:11:00,55.5,51.7,30.12,ESE,106,0.0,0.0,87,0.00,,CLR,0.00,VWS V14.01,2013-07-04 07:11:00,
2013-07-04 00:16:00,55.4,51.6,30.12,ESE,106,0.0,0.0,87,0.00,,CLR,0.00,VWS V14.01,2013-07-04 07:16:00,
2013-07-04 00:21:00,55.1,51.3,30.12,ESE,106,0.0,0.0,87,0.00,,CLR,0.00,VWS V14.01,2013-07-04 07:21:00,
2013-07-04 00:26:00,54.9,51.4,30.12,ESE,106,0.0,0.0,88,0.00,,CLR,0.00,VWS V14.01,2013-07-04 07:26:00,
2013-07-04 00:31:00,54.6,51.1,30.12,ESE,107,0.0,0.0,88,0.00,,CLR,0.00,VWS V14.01,2013-07-04 07:31:00,
2013-07-04 00:36:00,54.5,51.3,30.12,ESE,106,0.0,0.0,89,0.00,,CLR,0.00,VWS V14.01,2013-07-04 07:36:00,
2013-07-04 00:41:00,54.3,51.1,30.12,ESE,106,0.0,0.0,89,0.00,,CLR,0.00,VWS V14.01,2013-07-04 07:41:00,
2013-07-04 00:46:00,54.2,51.0,30.12,ESE,106,0.0,0.0,89,0.00,,FEW019,0.00,VWS V14.01,2013-07-04 07:46:00,
2013-07-04 00:51:00,54.1,51.2,30.12,SSE,150,0.0,0.0,90,0.00,,FEW019,0.00,VWS V14.01,2013-07-04 07:51:00,
2013-07-04 00:56:00,54.1,50.9,30.12,SSE,150,0.0,0.0,89,0.00,,FEW019,0.00,VWS V14.01,2013-07-04 07:56:00,
2013-07-04 01:01:00,54.1,50.9,30.12,West,276,0.0,0.0,89,0.00,,FEW019,0.00,VWS V14.01,2013-07-04 08:01:00,
2013-07-04 01:06:00,54.1,51.2,30.12,ESE,119,0.0,0.0,90,0.00,,CLR,0.00,VWS V14.01,2013-07-04 08:06:00,
2013-07-04 01:11:00,54.2,51.3,30.12,ESE,119,0.0,0.0,90,0.00,,CLR,0.00,VWS V14.01,2013-07-04 08:11:00,
2013-07-04 01:16:00,54.3,51.1,30.12,ESE,119,0.0,0.0,89,0.00,,CLR,0.00,VWS V14.01,2013-07-04 08:16:00,
2013-07-04 01:21:00,54.3,51.1,30.12,SSE,160,0.0,0.0,89,0.00,,CLR,0.00,VWS V14.01,2013-07-04 08:21:00,
2013-07-04 01:26:00,54.2,51.0,30.12,SSE,160,0.0,0.0,89,0.00,,CLR,0.00,VWS V14.01,2013-07-04 08:26:00,
2013-07-04 01:31:00,54.2,51.0,30.12,SSE,161,0.0,0.0,89,0.00,,CLR,0.00,VWS V14.01,2013-07-04 08:31:00,
2013-07-04 01:36:00,54.2,51.0,30.12,SSE,160,0.0,0.0,89,0.00,,CLR,0.00,VWS V14.01,2013-07-04 08:36:00,
2013-07-04 01:41:00,54.2,51.0,30.12,SSE,160,0.0,0.0,89,0.00,,CLR,0.00,VWS V14.01,2013-07-04 08:41:00,
2013-07-04 01:46:00,54.1,50.9,30.12,SSE,160,0.0,0.0,89,0.00,,CLR,0.00,VWS V14.01,2013-07-04 08:46:00,
2013-07-04 01:51:00,54.0,50.8,30.12,SSE,160,0.0,0.0,89,0.00,,CLR,0.00,VWS V14.01,2013-07-04 08:51:00,
2013-07-04 01:56:00,54.0,50.8,30.12,SSE,160,0.0,0.0,89,0.00,,CLR,0.00,VWS V14.01,2013-07-04 08:56:00,
2013-07-04 02:01:00,53.8,50.6,30.12,SSE,160,0.0,0.0,89,0.00,,CLR,0.00,VWS V14.01,2013-07-04 09:01:00,
2013-07-04 02:06:00,53.7,50.8,30.12,SSE,160,0.0,0.0,90,0.00,,CLR,0.00,VWS V14.01,2013-07-04 09:06:00,
2013-07-04 02:11:00,53.5,50.6,30.12,SSE,160,0.0,0.0,90,0.00,,CLR,0.00,VWS V14.01,2013-07-04 09:11:00,
2013-07-04 02:16:00,53.4,50.5,30.12,SSE,160,0.0,0.0,90,0.00,,CLR,0.00,VWS V14.01,2013-07-04 09:16:00,
2013-07-04 02:21:00,53.2,50.3,30.12,SSE,160,0.0,0.0,90,0.00,,CLR,0.00,VWS V14.01,2013-07-04 09:21:00,
2013-07-04 02:26:00,53.1,50.2,30.12,SSE,161,0.0,0.0,90,0.00,,CLR,0.00,VWS V14.01,2013-07-04 09:26:00,
2013-07-04 02:31:00,53.1,50.2,30.12,SSE,160,0.0,0.0,90,0.00,,CLR,0.00,VWS V14.01,2013-07-04 09:31:00,
2013-07-04 02:36:00,53.0,50.2,30.12,SSE,160,0.0,0.0,90,0.00,,CLR,0.00,VWS V14.01,2013-07-04 09:36:00,
2013-07-04 02:41:00,53.0,50.2,30.12,SSE,160,0.0,0.0,90,0.00,,CLR,0.00,VWS V14.01,2013-07-04 09:41:00,
2013-07-04 02:46:00,53.0,50.5,30.12,SSE,160,0.0,0.0,91,0.00,,CLR,0.00,VWS V14.01,2013-07-04 09:46:00,
2013-07-04 02:51:00,53.0,50.5,30.12,SSE,160,0.0,0.0,91,0.00,,CLR,0.00,VWS V14.01,2013-07-04 09:51:00,
2013-07-04 02:56:00,53.0,50.2,30.13,SSE,160,0.0,0.0,90,0.00,,CLR,0.00,VWS V14.01,2013-07-04 09:56:00,
2013-07-04 03:01:00,52.9,50.0,30.13,SSE,160,0.0,0.0,90,0.00,,CLR,0.00,VWS V14.01,2013-07-04 10:01:00,
2013-07-04 03:06:00,52.8,50.2,30.12,SSE,161,0.0,0.0,91,0.00,,CLR,0.00,VWS V14.01,2013-07-04 10:06:00,
2013-07-04 03:11:00,52.8,50.2,30.12,SSE,160,0.0,0.0,91,0.00,,CLR,0.00,VWS V14.01,2013-07-04 10:11:00,
2013-07-04 03:16:00,52.7,50.2,30.12,SSE,160,0.0,0.0,91,0.00,,CLR,0.00,VWS V14.01,2013-07-04 10:16:00,
2013-07-04 03:21:00,52.7,50.2,30.12,SSE,160,0.0,0.0,91,0.00,,CLR,0.00,VWS V14.01,2013-07-04 10:21:00,
2013-07-04 03:26:00,52.8,50.2,30.12,SSE,161,0.0,0.0,91,0.00,,SCT028,0.00,VWS V14.01,2013-07-04 10:26:00,
2013-07-04 03:31:00,52.6,50.0,30.12,SSE,160,0.0,0.0,91,0.00,,SCT028,0.00,VWS V14.01,2013-07-04 10:31:00,
2013-07-04 03:36:00,52.4,49.8,30.12,SSE,160,0.0,0.0,91,0.00,,SCT028,0.00,VWS V14.01,2013-07-04 10:36:00,
2013-07-04 03:41:00,52.2,49.7,30.12,SSE,160,0.0,0.0,91,0.00,,SCT028,0.00,VWS V14.01,2013-07-04 10:41:00,
2013-07-04 03:46:00,52.1,49.6,30.12,SSE,160,0.0,0.0,91,0.00,,OVC028,0.00,VWS V14.01,2013-07-04 10:46:00,
2013-07-04 03:51:00,52.0,49.5,30.12,SSE,160,0.0,0.0,91,0.00,,OVC028,0.00,VWS V14.01,2013-07-04 10:51:00,
2013-07-04 03:56:00,52.0,49.8,30.12,SSE,160,0.0,0.0,92,0.00,,OVC028,0.00,VWS V14.01,2013-07-04 10:56:00,
2013-07-04 04:01:00,51.9,49.4,30.12,SSE,160,0.0,0.0,91,0.00,,OVC028,0.00,VWS V14.01,2013-07-04 11:01:00,
2013-07-04 04:06:00,51.8,49.5,30.12,SSE,160,0.0,0.0,92,0.00,,BKN028,0.00,VWS V14.01,2013-07-04 11:06:00,
2013-07-04 04:11:00,51.8,49.5,30.12,SSE,160,0.0,0.0,92,0.00,,BKN028,0.00,VWS V14.01,2013-07-04 11:11:00,
2013-07-04 04:16:00,51.6,49.4,30.12,SSE,160,0.0,0.0,92,0.00,,BKN028,0.00,VWS V14.01,2013-07-04 11:16:00,
2013-07-04 04:21:00,51.4,49.2,30.12,SSE,160,0.0,0.0,92,0.00,,BKN028,0.00,VWS V14.01,2013-07-04 11:21:00,
2013-07-04 04:26:00,51.2,49.0,30.12,SSE,160,0.0,0.0,92,0.00,,BKN028,0.00,VWS V14.01,2013-07-04 11:26:00,
2013-07-04 04:31:00,51.1,48.9,30.12,SSE,160,0.0,0.0,92,0.00,,BKN028,0.00,VWS V14.01,2013-07-04 11:31:00,
2013-07-04 04:36:00,51.1,48.9,30.12,SSE,160,0.0,0.0,92,0.00,,BKN028,0.00,VWS V14.01,2013-07-04 11:36:00,
2013-07-04 04:41:00,51.1,48.9,30.12,SSE,160,0.0,0.0,92,0.00,,BKN028,0.00,VWS V14.01,2013-07-04 11:41:00,
2013-07-04 04:46:00,51.1,48.9,30.12,SSE,160,0.0,0.0,92,0.00,,BKN026,0.00,VWS V14.01,2013-07-04 11:46:00,
2013-07-04 04:51:00,51.0,48.8,30.12,SSE,160,0.0,0.0,92,0.00,,BKN026,0.00,VWS V14.01,2013-07-04 11:51:00,
2013-07-04 04:56:00,50.9,48.7,30.12,SSE,160,0.0,0.0,92,0.00,,BKN026,0.00,VWS V14.01,2013-07-04 11:56:00,
2013-07-04 05:01:00,50.8,48.6,30.12,SSE,161,0.0,0.0,92,0.00,,BKN026,0.00,VWS V14.01,2013-07-04 12:01:00,
2013-07-04 05:06:00,50.8,48.6,30.12,SSE,160,0.0,0.0,92,0.00,,FEW026,0.00,VWS V14.01,2013-07-04 12:06:00,
2013-07-04 05:11:00,50.8,48.6,30.12,SSE,160,0.0,0.0,92,0.00,,FEW026,0.00,VWS V14.01,2013-07-04 12:11:00,
2013-07-04 05:16:00,50.6,48.4,30.12,SSE,160,0.0,0.0,92,0.00,,FEW026,0.00,VWS V14.01,2013-07-04 12:16:00,
2013-07-04 05:21:00,50.6,48.4,30.12,SSE,160,0.0,0.0,92,0.00,,FEW026,0.00,VWS V14.01,2013-07-04 12:21:00,
2013-07-04 05:26:00,50.6,48.7,30.12,SSE,160,0.0,0.0,93,0.00,,BKN026,0.00,VWS V14.01,2013-07-04 12:26:00,
2013-07-04 05:31:00,50.6,48.7,30.12,SSE,161,0.0,0.0,93,0.00,,BKN026,0.00,VWS V14.01,2013-07-04 12:31:00,
2013-07-04 05:35:00,50.6,48.7,30.13,SSE,160,0.0,0.0,93,0.00,,BKN026,0.00,VWS V14.01,2013-07-04 12:35:00,
2013-07-04 05:40:00,50.6,48.7,30.13,SSE,160,0.0,0.0,93,0.00,,BKN026,0.00,VWS V14.01,2013-07-04 12:40:00,
2013-07-04 05:45:00,50.5,48.6,30.13,SSE,160,0.0,0.0,93,0.00,,FEW026,0.00,VWS V14.01,2013-07-04 12:45:00,
2013-07-04 05:50:00,50.4,48.5,30.13,SSE,162,0.0,0.0,93,0.00,,FEW026,0.00,VWS V14.01,2013-07-04 12:50:00,
2013-07-04 05:55:00,50.4,48.5,30.13,SSE,160,0.0,0.0,93,0.00,,FEW026,0.00,VWS V14.01,2013-07-04 12:55:00,
2013-07-04 06:00:00,50.4,48.5,30.13,SSE,161,0.0,0.0,93,0.00,,FEW026,0.00,VWS V14.01,2013-07-04 13:00:00,
2013-07-04 06:05:00,50.3,48.4,30.13,SSE,161,0.0,0.0,93,0.00,,CLR,0.00,VWS V14.01,2013-07-04 13:05:00,
2013-07-04 06:10:00,50.1,48.2,30.13,SSE,161,0.0,0.0,93,0.00,,CLR,0.00,VWS V14.01,2013-07-04 13:10:00,
2013-07-04 06:15:00,50.3,48.4,30.13,SSE,161,0.0,0.0,93,0.00,,CLR,0.00,VWS V14.01,2013-07-04 13:15:00,
2013-07-04 06:20:00,50.6,48.7,30.13,SSE,161,0.0,0.0,93,0.00,,CLR,0.00,VWS V14.01,2013-07-04 13:20:00,
2013-07-04 06:25:00,51.2,49.2,30.13,SSE,160,0.0,0.0,93,0.00,,CLR,0.00,VWS V14.01,2013-07-04 13:25:00,
2013-07-04 06:30:00,51.6,49.7,30.13,SSE,160,0.0,0.0,93,0.00,,CLR,0.00,VWS V14.01,2013-07-04 13:30:00,
2013-07-04 06:35:00,51.6,49.7,30.13,SSE,160,0.0,0.0,93,0.00,,CLR,0.00,VWS V14.01,2013-07-04 13:35:00,
2013-07-04 06:40:00,52.5,50.5,30.13,SSE,160,0.0,0.0,93,0.00,,CLR,0.00,VWS V14.01,2013-07-04 13:40:00,
2013-07-04 06:45:00,53.7,51.7,30.13,SSE,160,0.0,0.0,93,0.00,,CLR,0.00,VWS V14.01,2013-07-04 13:45:00,
2013-07-04 06:50:00,54.6,52.3,30.14,SSE,160,0.0,0.0,92,0.00,,CLR,0.00,VWS V14.01,2013-07-04 13:50:00,
2013-07-04 06:55:00,55.5,52.6,30.14,SSE,160,0.0,0.0,90,0.00,,CLR,0.00,VWS V14.01,2013-07-04 13:55:00,
2013-07-04 07:00:00,56.5,53.0,30.14,SSE,160,0.0,0.0,88,0.00,,CLR,0.00,VWS V14.01,2013-07-04 14:00:00,
2013-07-04 07:05:00,57.1,53.3,30.14,SSE,160,0.0,0.0,87,0.00,,CLR,0.00,VWS V14.01,2013-07-04 14:05:00,
2013-07-04 07:10:00,57.4,52.9,30.14,SSE,161,0.0,0.0,85,0.00,,CLR,0.00,VWS V14.01,2013-07-04 14:10:00,
2013-07-04 07:15:00,58.1,53.6,30.14,SSE,160,0.0,0.0,85,0.00,,CLR,0.00,VWS V14.01,2013-07-04 14:15:00,
2013-07-04 07:20:00,59.0,53.8,30.14,SSE,160,0.0,0.0,83,0.00,,CLR,0.00,VWS V14.01,2013-07-04 14:20:00,
2013-07-04 07:25:00,59.2,53.4,30.14,ESE,111,0.0,0.0,81,0.00,,CLR,0.00,VWS V14.01,2013-07-04 14:25:00,
2013-07-04 07:30:00,58.9,53.4,30.14,ESE,111,1.0,0.0,82,0.00,,CLR,0.00,VWS V14.01,2013-07-04 14:30:00,
2013-07-04 07:35:00,59.0,53.5,30.14,ESE,111,0.0,0.0,82,0.00,,CLR,0.00,VWS V14.01,2013-07-04 14:35:00,
2013-07-04 07:40:00,59.2,53.7,30.14,East,90,1.0,0.0,82,0.00,,CLR,0.00,VWS V14.01,2013-07-04 14:40:00,
2013-07-04 07:45:00,59.7,54.2,30.14,ESE,116,0.0,0.0,82,0.00,,CLR,0.00,VWS V14.01,2013-07-04 14:45:00,
2013-07-04 07:50:00,60.7,54.5,30.13,SE,142,0.0,0.0,80,0.00,,CLR,0.00,VWS V14.01,2013-07-04 14:50:00,
2013-07-04 07:55:00,61.1,54.5,30.13,SW,221,0.0,0.0,79,0.00,,CLR,0.00,VWS V14.01,2013-07-04 14:55:00,
2013-07-04 08:00:00,61.6,54.3,30.13,ESE,113,0.0,0.0,77,0.00,,CLR,0.00,VWS V14.01,2013-07-04 15:00:00,
2013-07-04 08:05:00,61.3,54.4,30.14,SSE,153,1.0,0.0,78,0.00,,CLR,0.00,VWS V14.01,2013-07-04 15:05:00,
2013-07-04 08:10:00,61.5,54.6,30.14,NNE,23,1.0,0.0,78,0.00,,CLR,0.00,VWS V14.01,2013-07-04 15:10:00,
2013-07-04 08:15:00,61.6,54.0,30.14,East,99,0.0,0.0,76,0.00,,CLR,0.00,VWS V14.01,2013-07-04 15:15:00,
2013-07-04 08:20:00,61.5,53.5,30.14,SE,134,3.0,0.0,75,0.00,,CLR,0.00,VWS V14.01,2013-07-04 15:20:00,
2013-07-04 08:25:00,61.3,53.3,30.14,ESE,114,5.0,0.0,75,0.00,,CLR,0.00,VWS V14.01,2013-07-04 15:25:00,
2013-07-04 08:30:00,61.5,53.5,30.14,ESE,110,4.0,0.0,75,0.00,,CLR,0.00,VWS V14.01,2013-07-04 15:30:00,
2013-07-04 08:35:00,61.8,53.8,30.14,SE,125,1.0,0.0,75,0.00,,CLR,0.00,VWS V14.01,2013-07-04 15:35:00,
2013-07-04 08:40:00,62.3,53.9,30.14,East,82,3.0,0.0,74,0.00,,CLR,0.00,VWS V14.01,2013-07-04 15:40:00,
2013-07-04 08:45:00,62.6,54.6,30.14,ENE,58,4.0,0.0,75,0.00,,SCT023,0.00,VWS V14.01,2013-07-04 15:45:00,
2013-07-04 08:50:00,62.4,53.6,30.14,ESE,116,3.0,0.0,73,0.00,,SCT023,0.00,VWS V14.01,2013-07-04 15:50:00,
2013-07-04 08:55:00,62.0,53.3,30.14,ESE,109,3.0,0.0,73,0.00,,SCT023,0.00,VWS V14.01,2013-07-04 15:55:00,
2013-07-04 09:00:00,61.8,53.4,30.14,ESE,109,2.0,0.0,74,0.00,,SCT023,0.00,VWS V14.01,2013-07-04 16:00:00,
2013-07-04 09:05:00,62.3,53.2,30.14,SE,128,2.0,0.0,72,0.00,,BKN025,0.00,VWS V14.01,2013-07-04 16:05:00,
2013-07-04 09:10:00,62.8,54.0,30.14,East,88,1.0,0.0,73,0.00,,BKN025,0.00,VWS V14.01,2013-07-04 16:10:00,
2013-07-04 09:15:00,62.7,53.2,30.14,East,91,5.0,0.0,71,0.00,,BKN025,0.00,VWS V14.01,2013-07-04 16:15:00,
2013-07-04 09:20:00,62.6,53.1,30.14,East,101,4.0,0.0,71,0.00,,BKN025,0.00,VWS V14.01,2013-07-04 16:20:00,
2013-07-04 09:25:00,62.8,53.7,30.14,SE,125,4.0,0.0,72,0.00,,OVC034,0.00,VWS V14.01,2013-07-04 16:25:00,
2013-07-04 09:30:00,63.3,53.4,30.14,East,94,2.0,0.0,70,0.00,,OVC034,0.00,VWS V14.01,2013-07-04 16:30:00,
2013-07-04 09:35:00,63.8,53.8,30.14,East,94,5.0,0.0,70,0.00,,OVC034,0.00,VWS V14.01,2013-07-04 16:35:00,
2013-07-04 09:40:00,63.9,53.5,30.14,ESE,123,3.0,0.0,69,0.00,,OVC034,0.00,VWS V14.01,2013-07-04 16:40:00,
2013-07-04 09:45:00,64.1,53.7,30.14,NE,34,2.0,0.0,69,0.00,,OVC032,0.00,VWS V14.01,2013-07-04 16:45:00,
2013-07-04 09:50:00,64.1,53.3,30.14,ESE,115,1.0,0.0,68,0.00,,OVC032,0.00,VWS V14.01,2013-07-04 16:50:00,
2013-07-04 09:55:00,64.2,53.4,30.14,SE,128,3.0,0.0,68,0.00,,OVC032,0.00,VWS V14.01,2013-07-04 16:55:00,
2013-07-04 10:00:00,64.1,52.9,30.14,ENE,78,5.0,0.0,67,0.00,,OVC032,0.00,VWS V14.01,2013-07-04 17:00:00,
2013-07-04 10:05:00,64.3,52.7,30.13,ESE,102,4.0,0.0,66,0.00,,OVC032,0.00,VWS V14.01,2013-07-04 17:05:00,
2013-07-04 10:10:00,64.5,53.3,30.13,ESE,111,7.0,0.0,67,0.00,,OVC032,0.00,VWS V14.01,2013-07-04 17:10:00,
2013-07-04 10:15:00,64.5,53.3,30.14,ESE,115,3.0,0.0,67,0.00,,OVC032,0.00,VWS V14.01,2013-07-04 17:15:00,
2013-07-04 10:20:00,64.3,53.5,30.13,ESE,118,5.0,0.0,68,0.00,,OVC032,0.00,VWS V14.01,2013-07-04 17:20:00,
2013-07-04 10:25:00,64.7,53.5,30.13,East,85,1.0,0.0,67,0.00,,OVC032,0.00,VWS V14.01,2013-07-04 17:25:00,
2013-07-04 10:30:00,64.9,54.1,30.13,ESE,107,9.0,0.0,68,0.00,,OVC032,0.00,VWS V14.01,2013-07-04 17:30:00,
2013-07-04 10:35:00,64.5,52.9,30.13,ESE,111,3.0,0.0,66,0.00,,OVC032,0.00,VWS V14.01,2013-07-04 17:35:00,
2013-07-04 10:40:00,64.6,53.0,30.13,ESE,123,3.0,0.0,66,0.00,,OVC032,0.00,VWS V14.01,2013-07-04 17:40:00,
2013-07-04 10:45:00,64.7,53.5,30.13,ESE,115,6.0,0.0,67,0.00,,OVC034,0.00,VWS V14.01,2013-07-04 17:45:00,
2013-07-04 10:50:00,65.2,54.0,30.13,ESE,106,2.0,0.0,67,0.00,,OVC034,0.00,VWS V14.01,2013-07-04 17:50:00,
2013-07-04 10:55:00,65.4,53.8,30.12,ESE,116,6.0,0.0,66,0.00,,OVC034,0.00,VWS V14.01,2013-07-04 17:55:00,
2013-07-04 11:00:00,65.4,54.2,30.12,ESE,116,2.0,0.0,67,0.00,,OVC034,0.00,VWS V14.01,2013-07-04 18:00:00,
2013-07-04 11:05:00,65.9,55.0,30.12,ESE,116,4.0,0.0,68,0.00,,OVC034,0.00,VWS V14.01,2013-07-04 18:05:00,
2013-07-04 11:10:00,66.3,54.6,30.12,SSW,209,0.0,0.0,66,0.00,,OVC034,0.00,VWS V14.01,2013-07-04 18:10:00,
2013-07-04 11:15:00,66.5,54.0,30.12,NW,314,0.0,0.0,64,0.00,,OVC034,0.00,VWS V14.01,2013-07-04 18:15:00,
2013-07-04 11:20:00,66.5,54.4,30.12,ESE,114,3.0,0.0,65,0.00,,OVC034,0.00,VWS V14.01,2013-07-04 18:20:00,
2013-07-04 11:25:00,66.3,54.6,30.12,ESE,110,2.0,0.0,66,0.00,,OVC042,0.00,VWS V14.01,2013-07-04 18:25:00,
2013-07-04 11:30:00,66.1,54.8,30.12,South,169,1.0,0.0,67,0.00,,OVC042,0.00,VWS V14.01,2013-07-04 18:30:00,
2013-07-04 11:35:00,66.1,54.8,30.12,East,99,4.0,0.0,67,0.00,,OVC042,0.00,VWS V14.01,2013-07-04 18:35:00,
2013-07-04 11:40:00,65.9,54.7,30.12,ENE,67,2.0,0.0,67,0.00,,OVC042,0.00,VWS V14.01,2013-07-04 18:40:00,
2013-07-04 11:45:00,66.3,55.4,30.12,SE,125,2.0,0.0,68,0.00,,OVC039,0.00,VWS V14.01,2013-07-04 18:45:00,
2013-07-04 11:50:00,66.5,55.2,30.12,East,93,1.0,0.0,67,0.00,,OVC039,0.00,VWS V14.01,2013-07-04 18:50:00,
2013-07-04 11:55:00,66.5,54.8,30.12,SE,132,1.0,0.0,66,0.00,,OVC039,0.00,VWS V14.01,2013-07-04 18:55:00,
2013-07-04 12:00:00,66.3,55.0,30.12,ENE,75,3.0,0.0,67,0.00,,OVC039,0.00,VWS V14.01,2013-07-04 19:00:00,
2013-07-04 12:05:00,66.3,55.0,30.12,ESE,111,2.0,0.0,67,0.00,,OVC043,0.00,VWS V14.01,2013-07-04 19:05:00,
2013-07-04 12:10:00,66.5,55.2,30.12,ESE,110,3.0,0.0,67,0.00,,OVC043,0.00,VWS V14.01,2013-07-04 19:10:00,
2013-07-04 12:15:00,66.4,54.7,30.12,ESE,110,4.0,0.0,66,0.00,,OVC043,0.00,VWS V14.01,2013-07-04 19:15:00,
2013-07-04 12:20:00,66.5,55.2,30.12,SE,131,2.0,0.0,67,0.00,,OVC043,0.00,VWS V14.01,2013-07-04 19:20:00,
2013-07-04 12:25:00,66.6,55.3,30.12,East,98,2.0,0.0,67,0.00,,OVC037,0.00,VWS V14.01,2013-07-04 19:25:00,
2013-07-04 12:30:00,66.9,55.2,30.12,SE,125,1.0,0.0,66,0.00,,OVC037,0.00,VWS V14.01,2013-07-04 19:30:00,
2013-07-04 12:35:00,66.9,55.2,30.12,ENE,66,2.0,0.0,66,0.00,,OVC037,0.00,VWS V14.01,2013-07-04 19:35:00,
2013-07-04 12:40:00,66.9,55.2,30.12,ESE,118,4.0,0.0,66,0.00,,OVC037,0.00,VWS V14.01,2013-07-04 19:40:00,
2013-07-04 12:45:00,66.9,55.2,30.12,ESE,108,5.0,0.0,66,0.00,,OVC036,0.00,VWS V14.01,2013-07-04 19:45:00,
2013-07-04 12:50:00,66.9,55.2,30.11,ENE,75,1.0,0.0,66,0.00,,OVC036,0.00,VWS V14.01,2013-07-04 19:50:00,
2013-07-04 12:55:00,67.3,55.2,30.11,NE,40,3.0,0.0,65,0.00,,OVC036,0.00,VWS V14.01,2013-07-04 19:55:00,
2013-07-04 13:00:00,67.5,55.8,30.11,NE,55,3.0,0.0,66,0.00,,OVC036,0.00,VWS V14.01,2013-07-04 20:00:00,
2013-07-04 13:05:00,67.5,55.8,30.11,East,96,6.0,0.0,66,0.00,,OVC046,0.00,VWS V14.01,2013-07-04 20:05:00,
2013-07-04 13:10:00,67.2,55.5,30.11,East,80,2.0,0.0,66,0.00,,OVC046,0.00,VWS V14.01,2013-07-04 20:10:00,
2013-07-04 13:15:00,67.6,56.3,30.11,ENE,67,4.0,0.0,67,0.00,,OVC046,0.00,VWS V14.01,2013-07-04 20:15:00,
2013-07-04 13:20:00,68.1,56.3,30.11,SSE,157,4.0,0.0,66,0.00,,OVC046,0.00,VWS V14.01,2013-07-04 20:20:00,
2013-07-04 13:25:00,68.5,55.9,30.11,East,90,1.0,0.0,64,0.00,,OVC044,0.00,VWS V14.01,2013-07-04 20:25:00,
2013-07-04 13:30:00,68.4,55.8,30.11,East,90,6.0,0.0,64,0.00,,OVC044,0.00,VWS V14.01,2013-07-04 20:30:00,
2013-07-04 13:35:00,68.6,56.4,30.11,SE,128,5.0,0.0,65,0.00,,OVC044,0.00,VWS V14.01,2013-07-04 20:35:00,
2013-07-04 13:40:00,68.5,55.9,30.11,East,89,10.0,0.0,64,0.00,,OVC044,0.00,VWS V14.01,2013-07-04 20:40:00,
2013-07-04 13:45:00,68.8,55.7,30.11,East,98,2.0,0.0,63,0.00,,OVC045,0.00,VWS V14.01,2013-07-04 20:45:00,
2013-07-04 13:50:00,68.7,55.2,30.11,NE,40,4.0,0.0,62,0.00,,OVC045,0.00,VWS V14.01,2013-07-04 20:50:00,
2013-07-04 13:55:00,68.6,55.5,30.10,ESE,103,5.0,0.0,63,0.00,,OVC045,0.00,VWS V14.01,2013-07-04 20:55:00,
2013-07-04 14:00:00,68.7,55.6,30.10,ESE,123,10.0,0.0,63,0.00,,OVC045,0.00,VWS V14.01,2013-07-04 21:00:00,
2013-07-04 14:05:00,68.5,55.9,30.10,East,80,2.0,0.0,64,0.00,,OVC045,0.00,VWS V14.01,2013-07-04 21:05:00,
2013-07-04 14:10:00,69.0,56.3,30.10,East,85,7.0,0.0,64,0.00,,OVC045,0.00,VWS V14.01,2013-07-04 21:10:00,
2013-07-04 14:15:00,68.8,55.3,30.10,East,82,5.0,0.0,62,0.00,,OVC045,0.00,VWS V14.01,2013-07-04 21:15:00,
2013-07-04 14:20:00,69.0,56.3,30.10,ESE,118,10.0,0.0,64,0.00,,OVC045,0.00,VWS V14.01,2013-07-04 21:20:00,
2013-07-04 14:25:00,69.1,55.5,30.10,East,98,8.0,0.0,62,0.00,,OVC047,0.00,VWS V14.01,2013-07-04 21:25:00,
2013-07-04 14:30:00,69.6,55.6,30.10,ESE,107,10.0,0.0,61,0.00,,OVC047,0.00,VWS V14.01,2013-07-04 21:30:00,
2013-07-04 14:35:00,69.9,56.3,30.10,ESE,123,2.0,0.0,62,0.00,,OVC047,0.00,VWS V14.01,2013-07-04 21:35:00,
2013-07-04 14:40:00,69.8,55.8,30.09,ESE,107,4.0,0.0,61,0.00,,OVC047,0.00,VWS V14.01,2013-07-04 21:40:00,
2013-07-04 14:45:00,69.4,55.4,30.10,East,80,11.0,0.0,61,0.00,,OVC049,0.00,VWS V14.01,2013-07-04 21:45:00,
2013-07-04 14:50:00,68.8,55.3,30.09,ESE,113,3.0,0.0,62,0.00,,OVC049,0.00,VWS V14.01,2013-07-04 21:50:00,
2013-07-04 14:55:00,69.3,55.7,30.09,East,101,6.0,0.0,62,0.00,,OVC049,0.00,VWS V14.01,2013-07-04 21:55:00,
2013-07-04 15:00:00,69.6,55.6,30.09,SE,132,5.0,0.0,61,0.00,,OVC049,0.00,VWS V14.01,2013-07-04 22:00:00,
2013-07-04 15:05:00,69.7,56.1,30.09,ESE,121,4.0,0.0,62,0.00,,BKN049,0.00,VWS V14.01,2013-07-04 22:05:00,
2013-07-04 15:10:00,69.9,56.3,30.09,ENE,59,2.0,0.0,62,0.00,,BKN049,0.00,VWS V14.01,2013-07-04 22:10:00,
2013-07-04 15:15:00,70.4,56.3,30.09,East,88,9.0,0.0,61,0.00,,BKN049,0.00,VWS V14.01,2013-07-04 22:15:00,
2013-07-04 15:20:00,69.7,54.8,30.09,East,99,4.0,0.0,59,0.00,,BKN049,0.00,VWS V14.01,2013-07-04 22:20:00,
2013-07-04 15:25:00,69.4,56.3,30.09,ESE,122,7.0,0.0,63,0.00,,BKN049,0.00,VWS V14.01,2013-07-04 22:25:00,
2013-07-04 15:30:00,69.5,55.9,30.09,ESE,118,3.0,0.0,62,0.00,,BKN049,0.00,VWS V14.01,2013-07-04 22:30:00,
2013-07-04 15:35:00,69.7,56.1,30.09,ESE,102,6.0,0.0,62,0.00,,BKN049,0.00,VWS V14.01,2013-07-04 22:35:00,
2013-07-04 15:40:00,70.1,56.0,30.09,ESE,121,10.0,0.0,61,0.00,,BKN049,0.00,VWS V14.01,2013-07-04 22:40:00,
2013-07-04 15:45:00,69.9,55.4,30.09,East,93,5.0,0.0,60,0.00,,OVC047,0.00,VWS V14.01,2013-07-04 22:45:00,
2013-07-04 15:50:00,69.9,55.4,30.09,ESE,110,5.0,0.0,60,0.00,,OVC047,0.00,VWS V14.01,2013-07-04 22:50:00,
2013-07-04 15:55:00,69.7,55.2,30.09,East,101,3.0,0.0,60,0.00,,OVC047,0.00,VWS V14.01,2013-07-04 22:55:00,
2013-07-04 16:00:00,70.1,56.0,30.09,SSE,165,11.0,0.0,61,0.00,,OVC047,0.00,VWS V14.01,2013-07-04 23:00:00,
2013-07-04 16:05:00,70.1,55.6,30.08,East,85,3.0,0.0,60,0.00,,BKN049,0.00,VWS V14.01,2013-07-04 23:05:00,
2013-07-04 16:10:00,70.5,56.4,30.08,East,93,4.0,0.0,61,0.00,,BKN049,0.00,VWS V14.01,2013-07-04 23:10:00,
2013-07-04 16:15:00,70.3,55.8,30.08,NE,50,4.0,0.0,60,0.00,,BKN049,0.00,VWS V14.01,2013-07-04 23:15:00,
2013-07-04 16:20:00,70.6,55.6,30.08,East,94,4.0,0.0,59,0.00,,BKN049,0.00,VWS V14.01,2013-07-04 23:20:00,
2013-07-04 16:25:00,70.5,55.5,30.08,ESE,107,9.0,0.0,59,0.00,,SCT049,0.00,VWS V14.01,2013-07-04 23:25:00,
2013-07-04 16:30:00,70.4,55.9,30.08,ESE,110,5.0,0.0,60,0.00,,SCT049,0.00,VWS V14.01,2013-07-04 23:30:00,
2013-07-04 16:35:00,70.1,55.6,30.07,ESE,104,7.0,0.0,60,0.00,,SCT049,0.00,VWS V14.01,2013-07-04 23:35:00,
2013-07-04 16:40:00,70.3,55.8,30.07,East,93,9.0,0.0,60,0.00,,SCT049,0.00,VWS V14.01,2013-07-04 23:40:00,
2013-07-04 16:45:00,70.9,56.3,30.07,ESE,104,16.0,0.0,60,0.00,,CLR,0.00,VWS V14.01,2013-07-04 23:45:00,
2013-07-04 16:50:00,70.6,55.6,30.07,ENE,69,5.0,0.0,59,0.00,,CLR,0.00,VWS V14.01,2013-07-04 23:50:00,
2013-07-04 16:55:00,70.4,55.4,30.07,ESE,102,5.0,0.0,59,0.00,,CLR,0.00,VWS V14.01,2013-07-04 23:55:00,
2013-07-04 17:00:00,70.3,55.8,30.07,ESE,121,5.0,0.0,60,0.00,,CLR,0.00,VWS V14.01,2013-07-05 00:00:00,
2013-07-04 17:05:00,70.3,55.8,30.07,SE,125,5.0,0.0,60,0.00,,CLR,0.00,VWS V14.01,2013-07-05 00:05:00,
2013-07-04 17:10:00,69.8,55.3,30.07,ESE,111,11.0,0.0,60,0.00,,CLR,0.00,VWS V14.01,2013-07-05 00:10:00,
2013-07-04 17:15:00,69.0,54.5,30.07,East,95,5.0,0.0,60,0.00,,CLR,0.00,VWS V14.01,2013-07-05 00:15:00,
2013-07-04 17:20:00,69.1,54.7,30.07,East,99,13.0,0.0,60,0.00,,CLR,0.00,VWS V14.01,2013-07-05 00:20:00,
2013-07-04 17:25:00,69.4,55.8,30.07,East,98,11.0,0.0,62,0.00,,CLR,0.00,VWS V14.01,2013-07-05 00:25:00,
2013-07-04 17:30:00,69.3,54.8,30.07,ENE,78,10.0,0.0,60,0.00,,CLR,0.00,VWS V14.01,2013-07-05 00:30:00,
2013-07-04 17:35:00,68.7,54.7,30.07,ENE,76,6.0,0.0,61,0.00,,CLR,0.00,VWS V14.01,2013-07-05 00:35:00,
2013-07-04 17:40:00,68.6,54.6,30.07,ESE,110,10.0,0.0,61,0.00,,CLR,0.00,VWS V14.01,2013-07-05 00:40:00,
2013-07-04 17:45:00,68.9,54.9,30.07,ESE,110,7.0,0.0,61,0.00,,CLR,0.00,VWS V14.01,2013-07-05 00:45:00,
2013-07-04 17:50:00,68.4,54.9,30.07,ESE,118,7.0,0.0,62,0.00,,CLR,0.00,VWS V14.01,2013-07-05 00:50:00,
2013-07-04 17:55:00,68.4,55.3,30.06,East,95,7.0,0.0,63,0.00,,CLR,0.00,VWS V14.01,2013-07-05 00:55:00,
2013-07-04 18:00:00,68.6,55.1,30.06,ESE,110,4.0,0.0,62,0.00,,CLR,0.00,VWS V14.01,2013-07-05 01:00:00,
2013-07-04 18:05:00,68.3,54.8,30.06,ESE,104,8.0,0.0,62,0.00,,BKN049,0.00,VWS V14.01,2013-07-05 01:05:00,
2013-07-04 18:10:00,68.2,55.1,30.06,ESE,111,12.0,0.0,63,0.00,,BKN049,0.00,VWS V14.01,2013-07-05 01:10:00,
2013-07-04 18:15:00,68.2,55.1,30.06,SE,125,4.0,0.0,63,0.00,,BKN049,0.00,VWS V14.01,2013-07-05 01:15:00,
2013-07-04 18:20:00,68.5,54.5,30.07,ESE,113,6.0,0.0,61,0.00,,BKN049,0.00,VWS V14.01,2013-07-05 01:20:00,
2013-07-04 18:25:00,68.2,54.7,30.06,East,85,9.0,0.0,62,0.00,,OVC049,0.00,VWS V14.01,2013-07-05 01:25:00,
2013-07-04 18:30:00,68.4,54.9,30.07,ESE,113,4.0,0.0,62,0.00,,OVC049,0.00,VWS V14.01,2013-07-05 01:30:00,
2013-07-04 18:35:00,67.7,54.2,30.06,ESE,103,9.0,0.0,62,0.00,,OVC049,0.00,VWS V14.01,2013-07-05 01:35:00,
2013-07-04 18:40:00,67.3,54.7,30.06,ESE,119,14.0,0.0,64,0.00,,OVC049,0.00,VWS V14.01,2013-07-05 01:40:00,
2013-07-04 18:45:00,67.3,54.7,30.06,East,100,2.0,0.0,64,0.00,,OVC045,0.00,VWS V14.01,2013-07-05 01:45:00,
2013-07-04 18:50:00,67.3,54.7,30.07,East,98,6.0,0.0,64,0.00,,OVC045,0.00,VWS V14.01,2013-07-05 01:50:00,
2013-07-04 18:55:00,67.7,54.7,30.06,ESE,123,10.0,0.0,63,0.00,,OVC045,0.00,VWS V14.01,2013-07-05 01:55:00,
2013-07-04 19:00:00,67.2,54.6,30.06,East,92,7.0,0.0,64,0.00,,OVC045,0.00,VWS V14.01,2013-07-05 02:00:00,
2013-07-04 19:05:00,66.9,54.3,30.06,NE,55,12.0,0.0,64,0.00,,OVC045,0.00,VWS V14.01,2013-07-05 02:05:00,
2013-07-04 19:10:00,66.7,54.2,30.07,East,94,10.0,0.0,64,0.00,,OVC045,0.00,VWS V14.01,2013-07-05 02:10:00,
2013-07-04 19:15:00,66.7,54.6,30.07,East,86,10.0,0.0,65,0.00,,OVC045,0.00,VWS V14.01,2013-07-05 02:15:00,
2013-07-04 19:20:00,66.5,54.4,30.07,ESE,109,5.0,0.0,65,0.00,,OVC045,0.00,VWS V14.01,2013-07-05 02:20:00,
2013-07-04 19:25:00,66.1,54.0,30.06,ESE,103,14.0,0.0,65,0.00,,BKN045,0.00,VWS V14.01,2013-07-05 02:25:00,
2013-07-04 19:30:00,65.7,54.0,30.06,ESE,105,4.0,0.0,66,0.00,,BKN045,0.00,VWS V14.01,2013-07-05 02:30:00,
2013-07-04 19:35:00,65.6,54.4,30.06,East,91,3.0,0.0,67,0.00,,BKN045,0.00,VWS V14.01,2013-07-05 02:35:00,
2013-07-04 19:40:00,65.5,54.3,30.07,ESE,121,5.0,0.0,67,0.00,,BKN045,0.00,VWS V14.01,2013-07-05 02:40:00,
2013-07-04 19:45:00,65.2,54.4,30.07,SE,134,3.0,0.0,68,0.00,,FEW045,0.00,VWS V14.01,2013-07-05 02:45:00,
2013-07-04 19:50:00,65.1,54.7,30.06,SE,140,6.0,0.0,69,0.00,,FEW045,0.00,VWS V14.01,2013-07-05 02:50:00,
2013-07-04 19:55:00,65.1,54.3,30.06,ESE,111,6.0,0.0,68,0.00,,FEW045,0.00,VWS V14.01,2013-07-05 02:55:00,
2013-07-04 20:00:00,65.0,54.2,30.07,ESE,107,9.0,0.0,68,0.00,,FEW045,0.00,VWS V14.01,2013-07-05 03:00:00,
2013-07-04 20:05:00,64.7,53.9,30.07,East,93,2.0,0.0,68,0.00,,BKN043,0.00,VWS V14.01,2013-07-05 03:05:00,
2013-07-04 20:10:00,64.5,54.1,30.07,ESE,119,3.0,0.0,69,0.00,,BKN043,0.00,VWS V14.01,2013-07-05 03:10:00,
2013-07-04 20:15:00,64.2,53.8,30.07,SE,133,5.0,0.0,69,0.00,,BKN043,0.00,VWS V14.01,2013-07-05 03:15:00,
2013-07-04 20:20:00,63.9,53.9,30.07,SE,144,5.0,0.0,70,0.00,,BKN043,0.00,VWS V14.01,2013-07-05 03:20:00,
2013-07-04 20:25:00,63.4,53.5,30.07,ESE,117,9.0,0.0,70,0.00,,OVC043,0.00,VWS V14.01,2013-07-05 03:25:00,
2013-07-04 20:30:00,63.0,53.5,30.07,East,80,2.0,0.0,71,0.00,,OVC043,0.00,VWS V14.01,2013-07-05 03:30:00,
2013-07-04 20:35:00,62.7,53.5,30.07,SE,132,4.0,0.0,72,0.00,,OVC043,0.00,VWS V14.01,2013-07-05 03:35:00,
2013-07-04 20:40:00,62.4,53.6,30.07,SE,130,3.0,0.0,73,0.00,,OVC043,0.00,VWS V14.01,2013-07-05 03:40:00,
2013-07-04 20:45:00,62.1,53.3,30.07,ESE,114,3.0,0.0,73,0.00,,OVC043,0.00,VWS V14.01,2013-07-05 03:45:00,
2013-07-04 20:50:00,61.9,53.5,30.07,ESE,115,2.0,0.0,74,0.00,,OVC043,0.00,VWS V14.01,2013-07-05 03:50:00,
2013-07-04 20:55:00,61.7,53.3,30.07,East,87,7.0,0.0,74,0.00,,OVC043,0.00,VWS V14.01,2013-07-05 03:55:00,
2013-07-04 21:00:00,61.6,53.2,30.07,ESE,103,2.0,0.0,74,0.00,,OVC043,0.00,VWS V14.01,2013-07-05 04:00:00,
2013-07-04 21:01:00,61.5,53.2,30.07,ESE,115,2.0,0.0,74,0.00,,OVC043,0.00,VWS V14.01,2013-07-05 04:01:00,
2013-07-04 21:06:00,61.3,53.3,30.07,East,96,3.0,0.0,75,0.00,,OVC043,0.00,VWS V14.01,2013-07-05 04:06:00,
2013-07-04 21:11:00,61.1,53.1,30.07,East,96,4.0,0.0,75,0.00,,OVC043,0.00,VWS V14.01,2013-07-05 04:11:00,
2013-07-04 21:16:00,60.9,53.3,30.07,ESE,117,7.0,0.0,76,0.00,,OVC043,0.00,VWS V14.01,2013-07-05 04:16:00,
2013-07-04 21:21:00,60.8,53.2,30.07,ESE,123,5.0,0.0,76,0.00,,OVC043,0.00,VWS V14.01,2013-07-05 04:21:00,
2013-07-04 21:26:00,60.6,53.4,30.07,ESE,115,5.0,0.0,77,0.00,,OVC041,0.00,VWS V14.01,2013-07-05 04:26:00,
2013-07-04 21:31:00,60.4,53.2,30.07,SE,126,3.0,0.0,77,0.00,,OVC041,0.00,VWS V14.01,2013-07-05 04:31:00,
2013-07-04 21:36:00,60.4,53.5,30.07,SSE,150,0.0,0.0,78,0.00,,OVC041,0.00,VWS V14.01,2013-07-05 04:36:00,
2013-07-04 21:41:00,60.1,53.2,30.07,East,95,0.0,0.0,78,0.00,,OVC041,0.00,VWS V14.01,2013-07-05 04:41:00,
2013-07-04 21:46:00,59.9,53.4,30.07,South,173,0.0,0.0,79,0.00,,SCT041,0.00,VWS V14.01,2013-07-05 04:46:00,
2013-07-04 21:51:00,59.6,53.4,30.08,ESE,116,0.0,0.0,80,0.00,,SCT041,0.00,VWS V14.01,2013-07-05 04:51:00,
2013-07-04 21:56:00,59.2,53.0,30.08,ESE,115,0.0,0.0,80,0.00,,SCT041,0.00,VWS V14.01,2013-07-05 04:56:00,
2013-07-04 22:01:00,58.9,53.1,30.08,East,83,0.0,0.0,81,0.00,,SCT041,0.00,VWS V14.01,2013-07-05 05:01:00,
2013-07-04 22:06:00,58.5,52.7,30.08,ESE,119,0.0,0.0,81,0.00,,CLR,0.00,VWS V14.01,2013-07-05 05:06:00,
2013-07-04 22:11:00,58.2,52.4,30.08,East,90,0.0,0.0,81,0.00,,CLR,0.00,VWS V14.01,2013-07-05 05:11:00,
2013-07-04 22:16:00,57.8,52.3,30.08,East,90,0.0,0.0,82,0.00,,CLR,0.00,VWS V14.01,2013-07-05 05:16:00,
2013-07-04 22:21:00,57.5,52.4,30.08,East,91,0.0,0.0,83,0.00,,CLR,0.00,VWS V14.01,2013-07-05 05:21:00,
2013-07-04 22:26:00,57.1,52.0,30.08,East,91,0.0,0.0,83,0.00,,CLR,0.00,VWS V14.01,2013-07-05 05:26:00,
2013-07-04 22:31:00,56.9,52.1,30.08,East,91,0.0,0.0,84,0.00,,CLR,0.00,VWS V14.01,2013-07-05 05:31:00,
2013-07-04 22:36:00,56.6,51.8,30.08,East,92,0.0,0.0,84,0.00,,CLR,0.00,VWS V14.01,2013-07-05 05:36:00,
2013-07-04 22:41:00,56.5,51.7,30.08,East,93,0.0,0.0,84,0.00,,CLR,0.00,VWS V14.01,2013-07-05 05:41:00,
2013-07-04 22:46:00,56.3,51.9,30.08,East,92,0.0,0.0,85,0.00,,CLR,0.00,VWS V14.01,2013-07-05 05:46:00,
2013-07-04 22:51:00,56.1,51.7,30.08,East,93,0.0,0.0,85,0.00,,CLR,0.00,VWS V14.01,2013-07-05 05:51:00,
2013-07-04 22:55:00,55.9,51.5,30.08,East,92,0.0,0.0,85,0.00,,CLR,0.00,VWS V14.01,2013-07-05 05:55:00,
2013-07-04 23:00:00,55.8,51.4,30.07,East,92,0.0,0.0,85,0.00,,CLR,0.00,VWS V14.01,2013-07-05 06:00:00,
2013-07-04 23:05:00,55.6,51.5,30.07,East,92,0.0,0.0,86,0.00,,CLR,0.00,VWS V14.01,2013-07-05 06:05:00,
2013-07-04 23:10:00,55.3,51.2,30.07,East,92,0.0,0.0,86,0.00,,CLR,0.00,VWS V14.01,2013-07-05 06:10:00,
2013-07-04 23:15:00,55.2,51.4,30.08,East,92,0.0,0.0,87,0.00,,CLR,0.00,VWS V14.01,2013-07-05 06:15:00,
2013-07-04 23:20:00,55.1,51.3,30.08,East,93,0.0,0.0,87,0.00,,CLR,0.00,VWS V14.01,2013-07-05 06:20:00,
2013-07-04 23:25:00,55.0,51.2,30.08,East,94,0.0,0.0,87,0.00,,SCT041,0.00,VWS V14.01,2013-07-05 06:25:00,
2013-07-04 23:30:00,55.1,51.3,30.08,East,94,0.0,0.0,87,0.00,,SCT041,0.00,VWS V14.01,2013-07-05 06:30:00,
2013-07-04 23:35:00,55.0,51.2,30.08,East,94,0.0,0.0,87,0.00,,SCT041,0.00,VWS V14.01,2013-07-05 06:35:00,
2013-07-04 23:40:00,54.7,50.9,30.08,East,94,0.0,0.0,87,0.00,,SCT041,0.00,VWS V14.01,2013-07-05 06:40:00,
2013-07-04 23:45:00,54.5,51.0,30.07,East,94,0.0,0.0,88,0.00,,BKN041,0.00,VWS V14.01,2013-07-05 06:45:00,
2013-07-04 23:50:00,54.3,50.8,30.08,East,94,0.0,0.0,88,0.00,,BKN041,0.00,VWS V14.01,2013-07-05 06:50:00,
2013-07-04 23:55:00,54.1,50.6,30.08,East,94,0.0,0.0,88,0.00,,BKN041,0.00,VWS V14.01,2013-07-05 06:55:00,